Time;durP1;ratioP1;P1;durP2;ratioP2;P2;SDS_P1;SDS_P2;PMS_P1;PMS_P2;Temp;Humidity;BMP_temperature;BMP_pressure;BME280_temperature;BME280_humidity;BME280_pressure;Samples;Min_cycle;Max_cycle;Signal;HPM_P1;HPM_P2
2022/03/02 00:01:58;;;;;;;22.70;15.57;;;;;;;2.98;78.13;102957.84;5029911;28;20222;-77
2022/03/02 00:04:24;;;;;;;23.60;15.50;;;;;;;2.91;77.63;102965.69;5012456;28;20194;-75
2022/03/02 00:06:49;;;;;;;24.00;16.07;;;;;;;2.90;78.03;102963.94;5012627;28;20201;-75
2022/03/02 00:09:15;;;;;;;25.03;16.00;;;;;;;2.90;78.44;102958.88;5014575;28;20273;-75
2022/03/02 00:11:40;;;;;;;25.23;15.30;;;;;;;2.92;77.67;102950.66;5050263;28;20209;-74
2022/03/02 00:14:06;;;;;;;24.47;16.00;;;;;;;2.94;78.16;102955.84;5032266;28;20222;-75
2022/03/02 00:16:35;;;;;;;26.67;16.33;;;;;;;2.99;77.88;102954.59;5012628;28;20204;-75
2022/03/02 00:19:04;;;;;;;23.50;15.83;;;;;;;2.97;77.76;102958.59;5030125;28;20202;-74
2022/03/02 00:21:29;;;;;;;22.63;15.17;;;;;;;2.93;79.17;102956.56;5040773;28;20204;-75
2022/03/02 00:23:54;;;;;;;24.40;15.73;;;;;;;2.92;78.58;102964.94;5050121;28;20716;-75
2022/03/02 00:26:20;;;;;;;22.93;15.43;;;;;;;2.89;79.13;102967.22;5032040;28;20561;-75
2022/03/02 00:28:46;;;;;;;24.23;15.87;;;;;;;2.92;79.71;102963.31;5049621;28;20554;-76
2022/03/02 00:31:12;;;;;;;23.33;14.70;;;;;;;2.92;79.41;102962.41;5031936;28;20625;-75
2022/03/02 00:33:37;;;;;;;29.13;17.43;;;;;;;2.94;79.19;102969.34;5037520;28;20191;-76
2022/03/02 00:36:03;;;;;;;25.50;16.47;;;;;;;2.92;80.53;102968.34;5029932;28;20225;-74
2022/03/02 00:38:29;;;;;;;26.47;16.27;;;;;;;2.93;79.50;102964.16;5029733;28;20186;-75
2022/03/02 00:40:55;;;;;;;25.43;16.13;;;;;;;2.87;79.79;102972.16;5012253;28;20214;-75
2022/03/02 00:43:20;;;;;;;24.83;16.53;;;;;;;2.84;80.43;102965.94;5020316;28;20760;-75
2022/03/02 00:45:46;;;;;;;26.73;16.80;;;;;;;2.78;80.16;102975.53;5049337;28;20712;-76
2022/03/02 00:48:11;;;;;;;26.33;16.53;;;;;;;2.81;80.59;102965.69;5049545;28;20661;-75
2022/03/02 00:50:37;;;;;;;26.83;17.17;;;;;;;2.79;81.01;102960.50;5049580;28;20213;-75
2022/03/02 00:53:05;;;;;;;27.20;17.00;;;;;;;2.80;80.78;102956.34;5031554;28;20213;-75
2022/03/02 00:55:33;;;;;;;29.20;17.43;;;;;;;2.81;80.58;102953.03;5031572;28;20204;-75
2022/03/02 00:57:59;;;;;;;29.67;17.87;;;;;;;2.75;80.46;102947.47;5031399;28;20251;-76
2022/03/02 01:00:24;;;;;;;26.13;16.53;;;;;;;2.71;80.08;102950.50;5045657;28;20372;-74
2022/03/02 01:02:50;;;;;;;24.67;16.80;;;;;;;2.71;80.92;102947.97;5049299;28;20296;-75
2022/03/02 01:05:16;;;;;;;26.60;17.50;;;;;;;2.71;81.18;102947.97;5049406;28;20239;-75
2022/03/02 01:07:41;;;;;;;25.70;16.17;;;;;;;2.73;80.94;102943.91;5049304;28;20236;-75
2022/03/02 01:10:07;;;;;;;24.27;17.40;;;;;;;2.74;80.97;102940.63;5049321;28;20688;-76
2022/03/02 01:12:33;;;;;;;23.27;16.13;;;;;;;2.66;81.12;102942.50;5043840;28;20210;-74
2022/03/02 01:14:59;;;;;;;27.77;16.37;;;;;;;2.61;81.64;102946.31;5034657;28;20180;-75
2022/03/02 01:17:25;;;;;;;22.97;15.63;;;;;;;2.62;81.82;102947.19;5039865;28;20181;-74
2022/03/02 01:19:51;;;;;;;25.70;17.50;;;;;;;2.56;81.29;102939.06;5038021;28;20330;-75
2022/03/02 01:22:16;;;;;;;25.83;16.67;;;;;;;2.53;81.19;102939.69;5055825;28;20212;-74
2022/03/02 01:24:43;;;;;;;30.73;18.03;;;;;;;2.53;81.14;102934.66;5027215;28;20189;-75
2022/03/02 01:27:08;;;;;;;30.10;18.37;;;;;;;2.54;81.71;102930.50;5017945;28;20664;-75
2022/03/02 01:29:34;;;;;;;28.17;18.17;;;;;;;2.52;81.26;102924.44;5018000;28;20217;-75
2022/03/02 01:32:09;;;;;;;29.70;18.17;;;;;;;2.58;81.05;102919.88;5036152;28;20214;-74
2022/03/02 01:34:35;;;;;;;28.63;17.60;;;;;;;2.59;80.40;102921.66;5036147;28;20949;-74
2022/03/02 01:37:01;;;;;;;27.00;17.63;;;;;;;2.56;79.62;102913.78;5036269;28;20197;-74
2022/03/02 01:39:26;;;;;;;27.03;16.83;;;;;;;2.50;80.41;102924.28;5055956;28;20571;-75
2022/03/02 01:41:52;;;;;;;27.97;18.27;;;;;;;2.45;80.96;102922.13;5055363;28;20216;-76
2022/03/02 01:44:19;;;;;;;25.63;16.83;;;;;;;2.44;80.34;102923.75;5055904;28;20174;-76
2022/03/02 01:46:44;;;;;;;29.17;17.53;;;;;;;2.40;80.46;102921.75;5055807;28;20539;-76
2022/03/02 01:49:10;;;;;;;29.83;17.03;;;;;;;2.45;81.40;102915.44;5055561;28;20192;-76
2022/03/02 01:51:36;;;;;;;28.77;17.87;;;;;;;2.45;80.93;102925.56;5037515;28;20714;-74
2022/03/02 01:54:01;;;;;;;27.17;17.83;;;;;;;2.39;81.09;102919.09;5020692;28;20332;-75
2022/03/02 01:56:27;;;;;;;27.23;17.23;;;;;;;2.39;80.32;102908.97;5035472;28;20194;-75
2022/03/02 01:58:52;;;;;;;27.83;18.30;;;;;;;2.38;80.71;102902.13;5035513;28;20205;-75
2022/03/02 02:01:18;;;;;;;25.37;16.93;;;;;;;2.39;81.32;102898.88;5017625;28;20255;-74
2022/03/02 02:03:44;;;;;;;27.70;17.63;;;;;;;2.35;80.79;102900.22;5001483;28;20183;-75
2022/03/02 02:06:10;;;;;;;25.23;17.40;;;;;;;2.34;80.26;102906.03;5001394;28;20843;-75
2022/03/02 02:08:36;;;;;;;29.53;18.10;;;;;;;2.34;80.55;102890.00;5035449;28;20649;-74
2022/03/02 02:11:03;;;;;;;27.80;17.00;;;;;;;2.32;80.25;102894.94;5035287;28;20961;-75
2022/03/02 02:13:30;;;;;;;26.00;17.13;;;;;;;2.34;80.34;102884.97;5035475;28;20214;-75
2022/03/02 02:15:56;;;;;;;33.47;18.60;;;;;;;2.29;81.37;102881.16;5035517;28;20205;-75
2022/03/02 02:18:21;;;;;;;28.30;18.73;;;;;;;2.29;80.79;102876.97;5046930;28;20200;-75
2022/03/02 02:20:47;;;;;;;28.83;17.67;;;;;;;2.25;81.58;102876.59;5055797;28;20178;-75
2022/03/02 02:23:13;;;;;;;29.30;19.27;;;;;;;2.27;81.40;102885.19;5037655;28;20205;-74
2022/03/02 02:25:39;;;;;;;24.93;16.90;;;;;;;2.27;80.46;102887.72;5035089;28;20182;-74
2022/03/02 02:28:04;;;;;;;27.87;18.37;;;;;;;2.28;80.99;102889.47;5034148;28;20667;-74
2022/03/02 02:30:30;;;;;;;27.97;17.80;;;;;;;2.31;81.43;102889.75;5034208;28;20222;-75
2022/03/02 02:32:56;;;;;;;28.60;18.23;;;;;;;2.30;81.19;102886.31;5032248;28;20651;-75
2022/03/02 02:35:22;;;;;;;26.07;17.13;;;;;;;2.29;80.46;102886.22;5014512;28;20182;-75
2022/03/02 02:37:48;;;;;;;30.00;18.33;;;;;;;2.26;81.16;102884.28;5047353;28;20730;-75
2022/03/02 02:40:19;;;;;;;27.70;18.37;;;;;;;2.23;81.10;102888.19;5050123;28;20170;-75
2022/03/02 02:42:46;;;;;;;32.17;19.13;;;;;;;2.20;80.77;102895.53;5031994;28;20297;-74
2022/03/02 02:45:17;;;;;;;26.43;17.53;;;;;;;2.15;80.44;102885.03;5032272;28;20213;-74
2022/03/02 02:47:44;;;;;;;27.93;17.87;;;;;;;2.14;80.77;102887.41;5014502;28;20183;-75
2022/03/02 02:50:17;;;;;;;31.90;19.23;;;;;;;2.18;79.56;102886.94;5032180;28;20248;-75
2022/03/02 02:52:42;;;;;;;29.33;17.00;;;;;;;2.19;79.20;102882.00;5014146;28;20206;-76
2022/03/02 02:55:10;;;;;;;29.87;18.97;;;;;;;2.14;79.21;102883.25;5014107;28;20271;-75
2022/03/02 02:57:35;;;;;;;29.83;17.77;;;;;;;2.13;79.77;102875.53;5014178;28;20190;-75
2022/03/02 03:00:01;;;;;;;29.90;18.43;;;;;;;2.16;79.49;102883.41;5032178;28;20186;-76
2022/03/02 03:02:26;;;;;;;27.03;17.97;;;;;;;2.15;79.42;102881.63;5031878;28;20217;-74
2022/03/02 03:04:52;;;;;;;28.77;18.50;;;;;;;2.11;78.82;102882.13;5014143;28;20282;-75
2022/03/02 03:07:17;;;;;;;30.37;17.60;;;;;;;2.10;80.17;102877.81;4997558;28;20289;-75
2022/03/02 03:09:42;;;;;;;26.17;16.80;;;;;;;2.06;79.52;102876.66;5031425;28;20170;-74
2022/03/02 03:12:09;;;;;;;27.10;18.07;;;;;;;2.12;79.60;102874.66;5031399;28;20206;-75
2022/03/02 03:14:34;;;;;;;28.50;19.13;;;;;;;2.17;79.14;102870.91;5031545;28;20182;-74
2022/03/02 03:17:00;;;;;;;27.63;18.73;;;;;;;2.15;79.65;102864.81;5031566;28;20260;-74
2022/03/02 03:19:25;;;;;;;27.60;17.33;;;;;;;2.16;78.25;102866.56;5031421;28;20189;-76
2022/03/02 03:21:50;;;;;;;27.17;16.70;;;;;;;2.19;77.57;102859.28;5013680;28;20210;-75
2022/03/02 03:24:16;;;;;;;26.27;17.17;;;;;;;2.16;76.81;102856.47;5031202;28;20203;-75
2022/03/02 03:26:41;;;;;;;28.77;17.40;;;;;;;2.14;77.38;102852.06;5013231;28;20194;-74
2022/03/02 03:29:06;;;;;;;26.07;16.83;;;;;;;2.11;77.78;102845.09;5013202;28;20198;-74
2022/03/02 03:31:32;;;;;;;26.30;17.17;;;;;;;2.07;77.05;102844.72;5030964;28;20289;-74
2022/03/02 03:33:57;;;;;;;27.73;17.00;;;;;;;2.09;76.82;102840.66;5027076;28;20285;-75
2022/03/02 03:36:22;;;;;;;28.20;17.60;;;;;;;2.09;77.50;102840.66;5033085;28;20186;-74
2022/03/02 03:38:48;;;;;;;30.23;18.43;;;;;;;2.04;77.99;102837.78;5016700;28;20177;-75
2022/03/02 03:41:13;;;;;;;26.90;17.30;;;;;;;2.00;78.08;102839.88;5050748;28;20174;-74
2022/03/02 03:43:38;;;;;;;25.83;17.53;;;;;;;1.99;78.63;102838.13;5027685;28;20218;-75
2022/03/02 03:46:04;;;;;;;24.53;16.00;;;;;;;2.02;79.43;102831.69;5029583;28;20560;-75
2022/03/02 03:48:29;;;;;;;27.47;17.83;;;;;;;2.02;78.69;102836.75;5029663;28;20190;-74
2022/03/02 03:50:54;;;;;;;24.50;16.73;;;;;;;1.98;78.87;102834.69;5044158;28;20209;-74
2022/03/02 03:53:21;;;;;;;29.40;18.10;;;;;;;1.90;79.36;102837.34;5032623;28;20217;-73
2022/03/02 03:55:46;;;;;;;27.13;17.20;;;;;;;1.84;80.11;102834.31;5050542;28;20185;-73
2022/03/02 03:58:11;;;;;;;26.67;17.03;;;;;;;1.79;79.98;102833.88;5050627;28;20186;-74
2022/03/02 04:00:37;;;;;;;28.57;16.47;;;;;;;1.83;79.87;102828.34;5050619;28;20192;-75
2022/03/02 04:03:04;;;;;;;26.37;17.63;;;;;;;1.73;80.53;102830.84;5032689;28;20205;-73
2022/03/02 04:05:29;;;;;;;27.83;17.20;;;;;;;1.73;79.91;102829.94;5036078;28;20696;-74
2022/03/02 04:07:54;;;;;;;28.97;17.40;;;;;;;1.77;80.43;102825.31;5012639;28;20218;-73
2022/03/02 04:10:20;;;;;;;24.50;16.17;;;;;;;1.80;79.80;102832.25;5030170;28;20206;-74
2022/03/02 04:12:46;;;;;;;27.53;17.07;;;;;;;1.80;79.34;102839.84;5030215;28;20206;-74
2022/03/02 04:15:11;;;;;;;29.50;18.10;;;;;;;1.74;79.29;102829.22;5012509;28;20233;-74
2022/03/02 04:17:37;;;;;;;28.20;17.60;;;;;;;1.71;79.20;102831.47;5031160;28;20194;-74
2022/03/02 04:20:05;;;;;;;30.27;17.77;;;;;;;1.67;79.85;102830.34;5030189;28;20178;-74
2022/03/02 04:22:30;;;;;;;25.83;16.33;;;;;;;1.66;79.48;102833.59;5012288;28;20237;-74
2022/03/02 04:24:55;;;;;;;29.77;17.47;;;;;;;1.60;80.80;102837.25;5012344;28;20736;-74
2022/03/02 04:27:21;;;;;;;29.93;16.93;;;;;;;1.63;80.68;102825.78;5029860;28;20663;-74
2022/03/02 04:29:46;;;;;;;28.17;18.60;;;;;;;1.62;81.16;102824.00;5029864;28;20187;-74
2022/03/02 04:32:11;;;;;;;28.83;17.30;;;;;;;1.57;80.48;102820.19;5029883;28;20663;-74
2022/03/02 04:34:37;;;;;;;29.57;18.40;;;;;;;1.61;80.46;102818.81;5035970;28;20206;-73
2022/03/02 04:37:02;;;;;;;28.57;17.60;;;;;;;1.61;80.55;102814.63;5049848;28;20553;-74
2022/03/02 04:39:27;;;;;;;26.27;16.67;;;;;;;1.60;79.92;102810.34;5048114;28;20599;-73
2022/03/02 04:41:53;;;;;;;28.67;17.50;;;;;;;1.60;80.26;102807.81;5049413;28;20280;-73
2022/03/02 04:44:18;;;;;;;25.80;16.60;;;;;;;1.56;80.76;102797.34;5049964;28;20296;-74
2022/03/02 04:46:48;;;;;;;26.70;16.77;;;;;;;1.51;79.98;102798.59;5031919;28;20629;-74
2022/03/02 04:49:17;;;;;;;29.03;18.23;;;;;;;1.41;80.86;102807.00;5048949;28;20166;-74
2022/03/02 04:51:47;;;;;;;26.60;17.77;;;;;;;1.37;80.65;102810.00;5049568;28;20221;-73
2022/03/02 04:55:05;;;;;;;29.77;17.73;;;;;;;1.34;80.68;102801.28;5049377;28;20315;-74
2022/03/02 04:56:59;;;;;;;28.37;17.70;;;;;;;1.20;81.33;102802.63;5049409;28;20695;-73
2022/03/02 04:59:24;;;;;;;27.83;17.30;;;;;;;1.20;80.71;102806.75;5031570;28;20280;-74
2022/03/02 05:01:49;;;;;;;26.87;17.43;;;;;;;1.13;81.49;102799.38;5049545;28;20233;-74
2022/03/02 05:04:15;;;;;;;27.50;16.77;;;;;;;1.13;81.09;102802.81;5031557;28;20228;-75
2022/03/02 05:06:40;;;;;;;27.20;17.00;;;;;;;1.13;80.94;102804.44;5031530;28;20213;-73
2022/03/02 05:09:05;;;;;;;26.93;17.07;;;;;;;1.10;81.99;102814.28;5042445;28;20186;-74
2022/03/02 05:11:31;;;;;;;25.30;17.27;;;;;;;1.04;81.92;102807.03;5026938;28;20246;-73
2022/03/02 05:13:56;;;;;;;27.13;16.47;;;;;;;1.00;82.20;102807.53;5029726;28;20201;-74
2022/03/02 05:16:22;;;;;;;26.37;17.53;;;;;;;1.01;81.92;102813.47;5029510;28;20189;-74
2022/03/02 05:18:48;;;;;;;30.40;17.73;;;;;;;0.96;83.03;102805.47;5033464;28;20223;-74
2022/03/02 05:21:14;;;;;;;25.73;17.73;;;;;;;0.97;82.43;102806.38;5049144;28;20177;-75
2022/03/02 05:23:39;;;;;;;26.20;17.37;;;;;;;0.99;82.82;102798.19;5031414;28;20185;-74
2022/03/02 05:26:05;;;;;;;31.37;18.57;;;;;;;0.98;82.36;102804.00;5049235;28;20192;-73
2022/03/02 05:28:30;;;;;;;29.03;17.70;;;;;;;0.96;82.92;102802.94;5049066;28;20770;-74
2022/03/02 05:30:56;;;;;;;29.97;17.70;;;;;;;0.92;83.19;102803.41;5049105;28;20751;-73
2022/03/02 05:33:21;;;;;;;29.83;18.20;;;;;;;0.80;83.36;102806.50;5049040;28;20206;-73
2022/03/02 05:35:46;;;;;;;30.03;18.23;;;;;;;0.81;83.13;102805.75;5049096;28;20182;-75
2022/03/02 05:38:12;;;;;;;27.63;17.97;;;;;;;0.74;82.78;102803.44;5048876;28;20281;-74
2022/03/02 05:40:37;;;;;;;29.33;19.40;;;;;;;0.65;82.40;102808.56;5049136;28;20182;-74
2022/03/02 05:43:02;;;;;;;30.07;18.53;;;;;;;0.68;82.19;102812.97;5031131;28;20207;-74
2022/03/02 05:45:28;;;;;;;29.27;18.20;;;;;;;0.68;82.82;102811.31;5049121;28;20319;-73
2022/03/02 05:47:53;;;;;;;26.20;17.47;;;;;;;0.59;82.70;102807.97;5031167;28;20190;-74
2022/03/02 05:50:19;;;;;;;28.97;18.13;;;;;;;0.61;82.56;102808.13;5030969;28;20209;-74
2022/03/02 05:52:44;;;;;;;26.90;17.50;;;;;;;0.60;82.20;102803.84;5048776;28;20213;-73
2022/03/02 05:55:09;;;;;;;26.97;17.17;;;;;;;0.59;81.72;102813.00;5048885;28;20185;-74
2022/03/02 05:57:35;;;;;;;29.37;19.37;;;;;;;0.47;82.38;102810.28;5048739;28;20194;-74
2022/03/02 06:00:00;;;;;;;28.20;17.20;;;;;;;0.50;83.14;102812.19;5014440;28;20656;-74
2022/03/02 06:02:25;;;;;;;27.47;17.33;;;;;;;0.43;82.63;102808.22;5034440;28;20220;-74
2022/03/02 06:04:51;;;;;;;27.47;17.53;;;;;;;0.43;82.36;102809.88;5052588;28;20217;-74
2022/03/02 06:07:16;;;;;;;30.47;18.03;;;;;;;0.44;82.82;102801.56;5032018;28;20690;-73
2022/03/02 06:09:42;;;;;;;28.93;17.70;;;;;;;0.38;82.82;102809.44;5022270;28;20226;-74
2022/03/02 06:12:08;;;;;;;29.60;18.87;;;;;;;0.40;82.67;102816.28;5018757;28;20206;-74
2022/03/02 06:14:34;;;;;;;28.63;19.50;;;;;;;0.45;82.99;102820.09;5032068;28;20476;-74
2022/03/02 06:17:00;;;;;;;31.77;18.93;;;;;;;0.44;83.06;102814.16;5032273;28;20460;-74
2022/03/02 06:19:25;;;;;;;30.23;19.50;;;;;;;0.46;83.56;102807.59;5032102;28;20190;-73
2022/03/02 06:21:52;;;;;;;27.63;18.27;;;;;;;0.49;83.38;102814.59;5032011;28;20198;-73
2022/03/02 06:24:17;;;;;;;28.47;17.77;;;;;;;0.52;83.49;102821.66;5032268;28;20244;-73
2022/03/02 06:26:43;;;;;;;27.60;18.03;;;;;;;0.52;83.31;102825.81;5032299;28;20433;-73
2022/03/02 06:29:08;;;;;;;30.50;17.57;;;;;;;0.50;83.49;102818.88;5014108;28;20201;-74
2022/03/02 06:31:34;;;;;;;29.93;18.33;;;;;;;0.54;82.58;102824.31;5031833;28;20218;-73
2022/03/02 06:34:00;;;;;;;29.93;18.17;;;;;;;0.57;83.07;102818.66;5030430;28;20198;-73
2022/03/02 06:36:25;;;;;;;30.10;18.10;;;;;;;0.52;82.57;102816.63;4997477;28;20201;-74
2022/03/02 06:38:51;;;;;;;27.43;18.07;;;;;;;0.61;83.03;102809.03;5031605;28;20672;-74
2022/03/02 06:41:29;;;;;;;30.47;18.53;;;;;;;0.62;82.58;102812.41;5013821;28;20296;-73
2022/03/02 06:44:01;;;;;;;28.93;17.97;;;;;;;0.64;82.86;102803.38;5031420;28;20222;-74
2022/03/02 06:46:51;;;;;;;26.77;17.53;;;;;;;0.68;82.90;102802.91;5031942;28;20500;-73
2022/03/02 06:49:25;;;;;;;29.93;17.67;;;;;;;0.71;82.59;102809.09;5051558;28;20855;-74
2022/03/02 06:51:56;;;;;;;29.00;18.03;;;;;;;0.71;83.07;102804.06;5051599;28;20468;-73
2022/03/02 06:54:27;;;;;;;30.03;18.47;;;;;;;0.63;82.91;102805.00;5051693;28;20240;-73
2022/03/02 06:56:56;;;;;;;27.87;17.47;;;;;;;0.65;82.80;102806.03;5051609;28;20464;-73
2022/03/02 06:59:37;;;;;;;31.00;17.90;;;;;;;0.68;83.07;102812.97;5033276;28;20436;-73
2022/03/02 07:02:04;;;;;;;28.50;18.30;;;;;;;0.73;82.87;102821.84;5031630;28;20539;-73
2022/03/02 07:04:39;;;;;;;30.70;17.93;;;;;;;0.72;82.75;102823.47;5014177;28;20457;-73
2022/03/02 07:07:05;;;;;;;27.03;17.50;;;;;;;0.69;83.06;102830.72;5014021;28;20531;-73
2022/03/02 07:09:32;;;;;;;27.63;17.93;;;;;;;0.73;82.87;102830.25;5031352;28;20437;-73
2022/03/02 07:12:03;;;;;;;32.30;19.83;;;;;;;0.81;83.07;102838.50;5043760;28;20978;-73
2022/03/02 07:14:30;;;;;;;34.13;20.90;;;;;;;0.96;82.96;102835.72;5051358;28;20435;-73
2022/03/02 07:16:58;;;;;;;33.23;20.97;;;;;;;1.22;82.39;102833.88;5033539;28;20200;-73
2022/03/02 07:19:24;;;;;;;29.70;18.60;;;;;;;1.40;81.31;102830.47;5033203;28;20474;-74
2022/03/02 07:21:50;;;;;;;30.00;19.40;;;;;;;1.55;81.35;102831.78;5051300;28;20837;-73
2022/03/02 07:24:19;;;;;;;29.83;19.33;;;;;;;1.70;80.87;102835.63;5051186;28;20268;-73
2022/03/02 07:26:50;;;;;;;28.13;18.03;;;;;;;1.91;80.70;102834.06;5051183;28;20196;-73
2022/03/02 07:29:15;;;;;;;28.27;16.83;;;;;;;2.09;78.02;102834.00;5033210;28;20228;-73
2022/03/02 07:31:42;;;;;;;27.30;17.87;;;;;;;2.28;76.86;102828.84;5050883;28;20213;-74
2022/03/02 07:34:12;;;;;;;28.40;17.97;;;;;;;2.43;76.49;102828.47;5051167;28;20231;-73
2022/03/02 07:36:40;;;;;;;28.20;17.80;;;;;;;2.60;75.34;102828.25;5051297;28;20234;-73
2022/03/02 07:39:06;;;;;;;22.17;15.97;;;;;;;2.68;74.71;102831.41;5050863;28;20225;-74
2022/03/02 07:41:31;;;;;;;25.00;16.83;;;;;;;2.81;73.70;102837.56;5032849;28;20931;-74
2022/03/02 07:43:57;;;;;;;23.43;16.07;;;;;;;3.06;72.07;102831.22;5033115;28;20256;-74
2022/03/02 07:46:22;;;;;;;21.50;16.27;;;;;;;3.27;72.61;102827.88;5050901;28;20644;-73
2022/03/02 07:48:48;;;;;;;22.30;16.40;;;;;;;3.47;71.18;102834.53;5050509;28;20294;-74
2022/03/02 07:51:15;;;;;;;22.80;15.30;;;;;;;3.60;70.83;102833.13;5032706;28;20209;-75
2022/03/02 07:53:43;;;;;;;23.27;15.77;;;;;;;3.76;69.31;102828.47;5050654;28;20190;-74
2022/03/02 07:56:10;;;;;;;20.60;14.30;;;;;;;3.97;67.57;102816.59;5050655;28;20633;-74
2022/03/02 07:58:40;;;;;;;21.20;14.13;;;;;;;4.03;66.04;102820.47;5029594;28;20198;-74
2022/03/02 08:01:19;;;;;;;20.67;15.10;;;;;;;4.24;64.96;102827.16;5030781;28;20213;-74
2022/03/02 08:03:45;;;;;;;22.33;14.80;;;;;;;4.76;65.44;102825.25;5049113;28;20178;-72
2022/03/02 08:06:11;;;;;;;21.70;15.27;;;;;;;5.11;65.00;102810.94;5032796;28;20570;-73
2022/03/02 08:08:37;;;;;;;24.37;15.50;;;;;;;5.00;61.89;102813.47;5050287;28;20189;-73
2022/03/02 08:11:04;;;;;;;23.30;15.37;;;;;;;4.82;62.60;102813.03;5024496;28;20632;-74
2022/03/02 08:13:31;;;;;;;23.30;15.37;;;;;;;5.11;62.90;102817.69;5030290;28;20712;-75
2022/03/02 08:15:57;;;;;;;20.27;14.27;;;;;;;5.36;62.38;102809.41;5023817;28;20280;-75
2022/03/02 08:18:22;;;;;;;24.03;16.33;;;;;;;5.34;61.28;102808.41;5025869;28;20201;-73
2022/03/02 08:20:50;;;;;;;24.23;15.43;;;;;;;5.55;60.39;102809.94;5030282;28;20261;-74
2022/03/02 08:23:19;;;;;;;22.87;15.33;;;;;;;5.84;60.38;102812.03;5028049;28;20229;-75
2022/03/02 08:25:46;;;;;;;20.50;14.90;;;;;;;6.17;59.39;102811.81;5030251;28;20205;-74
2022/03/02 08:28:14;;;;;;;22.67;14.33;;;;;;;6.14;57.36;102799.78;5028766;28;20186;-75
2022/03/02 08:30:41;;;;;;;20.33;14.53;;;;;;;6.28;56.48;102800.69;5028824;28;20580;-74
2022/03/02 08:33:08;;;;;;;19.13;13.87;;;;;;;6.76;55.07;102801.41;5029930;28;20206;-77
2022/03/02 08:35:38;;;;;;;21.40;14.67;;;;;;;6.92;55.30;102801.66;4996349;28;20186;-74
2022/03/02 08:38:04;;;;;;;18.10;12.83;;;;;;;7.08;53.78;102797.66;5009956;28;20182;-74
2022/03/02 08:40:29;;;;;;;19.40;14.23;;;;;;;7.52;53.27;102805.56;5029795;28;20185;-74
2022/03/02 08:42:57;;;;;;;23.83;14.93;;;;;;;7.63;53.36;102808.00;5029743;28;20206;-75
2022/03/02 08:45:23;;;;;;;18.43;12.97;;;;;;;7.69;53.03;102802.41;5049611;28;20528;-76
2022/03/02 08:47:49;;;;;;;17.67;13.87;;;;;;;7.55;51.23;102803.22;5049252;28;20213;-76
2022/03/02 08:50:14;;;;;;;18.37;12.53;;;;;;;8.19;50.96;102808.91;5031058;28;20244;-77
2022/03/02 08:52:40;;;;;;;22.67;15.17;;;;;;;8.08;49.53;102813.41;5039639;28;20210;-74
2022/03/02 08:55:11;;;;;;;33.77;19.00;;;;;;;8.42;49.85;102812.09;5031579;28;20208;-75
2022/03/02 08:57:43;;;;;;;19.27;13.07;;;;;;;8.50;49.37;102808.34;5043396;28;20545;-73
2022/03/02 09:00:11;;;;;;;17.47;12.67;;;;;;;8.70;46.27;102804.41;5033864;28;20217;-74
2022/03/02 09:02:37;;;;;;;17.57;12.23;;;;;;;9.02;48.57;102792.66;5029365;28;20711;-74
2022/03/02 09:05:05;;;;;;;17.67;12.10;;;;;;;9.19;46.73;102785.94;5011701;28;20193;-75
2022/03/02 09:07:30;;;;;;;16.47;12.40;;;;;;;9.49;44.59;102792.78;5021862;28;20736;-74
2022/03/02 09:09:57;;;;;;;17.90;12.63;;;;;;;9.80;45.28;102788.50;5030857;28;20312;-76
2022/03/02 09:12:23;;;;;;;15.07;11.47;;;;;;;10.90;43.31;102785.81;5048995;28;20213;-74
2022/03/02 09:14:49;;;;;;;17.23;12.73;;;;;;;13.74;37.72;102770.13;5048986;28;20278;-76
2022/03/02 09:17:21;;;;;;;14.83;11.33;;;;;;;17.73;29.75;102758.91;5049144;28;20262;-75
2022/03/02 09:19:46;;;;;;;13.03;11.67;;;;;;;18.64;26.23;102756.38;5048976;28;20243;-76
2022/03/02 09:22:12;;;;;;;12.27;10.97;;;;;;;17.96;27.27;102764.56;5049033;28;20190;-74
2022/03/02 09:24:38;;;;;;;13.87;11.50;;;;;;;19.32;26.10;102758.38;5048082;28;20220;-74
2022/03/02 09:27:07;;;;;;;13.30;11.13;;;;;;;19.67;24.19;102751.94;5031482;28;20838;-73
2022/03/02 09:29:33;;;;;;;13.87;12.17;;;;;;;19.94;24.68;102766.16;5049147;28;20211;-72
2022/03/02 09:32:02;;;;;;;13.90;12.40;;;;;;;21.12;24.41;102763.91;5027360;28;20218;-73
2022/03/02 09:34:29;;;;;;;13.93;12.37;;;;;;;22.51;22.49;102773.25;5011763;28;20557;-73
2022/03/02 09:36:57;;;;;;;15.43;12.97;;;;;;;23.25;22.57;102758.44;5021891;28;20233;-73
2022/03/02 09:39:23;;;;;;;15.30;13.70;;;;;;;22.70;22.56;102772.38;5031634;28;20672;-73
2022/03/02 09:42:04;;;;;;;14.27;12.77;;;;;;;22.71;21.96;102766.31;5032646;28;20256;-74
2022/03/02 09:44:35;;;;;;;12.68;11.48;;;;;;;23.11;20.98;102752.34;5033094;28;20178;-73
2022/03/02 09:47:01;;;;;;;12.90;11.65;;;;;;;23.76;21.50;102754.81;5015449;28;20627;-74
2022/03/02 09:49:30;;;;;;;12.88;11.65;;;;;;;24.94;20.64;102743.59;5032858;28;20185;-76
2022/03/02 09:52:08;;;;;;;13.70;12.30;;;;;;;22.19;22.55;102754.88;5032795;28;20241;-74
2022/03/02 09:54:36;;;;;;;12.95;11.55;;;;;;;23.42;21.61;102743.59;5048162;28;20178;-73
2022/03/02 09:57:03;;;;;;;12.88;11.55;;;;;;;24.30;21.09;102741.44;5032808;28;20189;-73
2022/03/02 09:59:33;;;;;;;12.93;11.73;;;;;;;24.83;20.27;102736.72;5032464;28;20579;-74
2022/03/02 10:02:01;;;;;;;13.07;11.50;;;;;;;24.28;20.84;102732.75;5032576;28;20211;-72
2022/03/02 10:04:28;;;;;;;13.63;12.23;;;;;;;23.81;20.36;102726.88;5032627;28;20182;-73
2022/03/02 10:07:26;;;;;;;15.75;14.15;;;;;;;25.82;18.77;102718.13;5032745;28;20205;-73
2022/03/02 10:09:50;;;;;;;12.85;11.65;;;;;;;24.44;20.26;102716.91;5032323;28;20233;-73
2022/03/02 10:12:16;;;;;;;13.07;11.77;;;;;;;24.85;20.20;102717.47;5032419;28;20309;-75
2022/03/02 10:14:42;;;;;;;14.20;12.70;;;;;;;26.00;19.14;102707.41;5032373;28;20321;-74
2022/03/02 10:17:11;;;;;;;19.08;14.65;;;;;;;26.12;18.92;102709.88;5032372;28;20194;-73
2022/03/02 10:19:44;;;;;;;12.60;11.30;;;;;;;24.75;19.17;102710.56;5032159;28;20187;-73
2022/03/02 10:22:39;;;;;;;11.43;10.32;;;;;;;24.56;19.79;102708.97;5032353;28;20229;-73
2022/03/02 10:25:06;;;;;;;13.82;12.45;;;;;;;26.55;17.74;102708.28;5032150;28;20194;-73
2022/03/02 10:27:51;;;;;;;12.35;11.15;;;;;;;26.80;17.77;102714.03;5014504;28;20680;-74
2022/03/02 10:30:17;;;;;;;12.70;11.50;;;;;;;26.27;17.42;102704.38;5032104;28;20203;-71
2022/03/02 10:32:43;;;;;;;22.83;18.75;;;;;;;26.20;18.17;102701.88;5032050;28;20202;-73
2022/03/02 10:35:11;;;;;;;12.85;11.63;;;;;;;27.68;17.30;102683.31;5032091;28;20182;-73
2022/03/02 10:38:03;;;;;;;13.00;11.30;;;;;;;26.70;17.36;102688.81;4999859;28;20249;-73
2022/03/02 10:40:32;;;;;;;12.98;11.60;;;;;;;26.12;18.01;102695.84;5021292;28;20793;-73
2022/03/02 10:43:04;;;;;;;12.38;11.18;;;;;;;26.41;18.06;102691.00;5031807;28;20210;-73
2022/03/02 10:45:46;;;;;;;13.65;12.25;;;;;;;25.46;18.85;102687.09;5031895;28;20661;-73
2022/03/02 10:48:12;;;;;;;12.50;11.20;;;;;;;25.90;19.62;102691.75;5013298;28;20193;-74
2022/03/02 10:50:39;;;;;;;13.00;11.70;;;;;;;26.12;18.30;102694.09;5014020;28;20191;-73
2022/03/02 10:53:11;;;;;;;13.13;11.57;;;;;;;26.36;17.53;102677.94;5031732;28;20228;-75
2022/03/02 10:55:36;;;;;;;12.57;11.27;;;;;;;24.35;18.89;102682.06;5031751;28;20672;-73
2022/03/02 10:58:05;;;;;;;12.75;11.55;;;;;;;27.15;17.63;102674.78;5036465;28;20178;-74
2022/03/02 11:00:32;;;;;;;13.50;12.05;;;;;;;24.49;18.73;102685.44;5032996;28;20445;-75
2022/03/02 11:02:58;;;;;;;13.25;11.90;;;;;;;24.84;19.10;102681.66;5031267;28;20759;-75
2022/03/02 11:05:28;;;;;;;12.73;11.52;;;;;;;27.06;17.30;102677.56;5014092;28;20183;-75
2022/03/02 11:07:54;;;;;;;13.60;12.23;;;;;;;26.85;17.10;102683.25;5031606;28;20621;-76
2022/03/02 11:10:22;;;;;;;13.32;12.13;;;;;;;26.57;17.75;102685.50;5031752;28;20163;-75
2022/03/02 11:12:49;;;;;;;13.55;12.25;;;;;;;25.49;17.73;102691.44;5031692;28;20198;-74
2022/03/02 11:15:17;;;;;;;13.52;12.23;;;;;;;26.67;17.57;102686.22;5031791;28;20190;-74
2022/03/02 11:17:50;;;;;;;15.07;13.52;;;;;;;28.67;16.22;102669.56;5031597;28;20185;-75